sensor_id;sensor_type;location;lat;lon;timestamp;pressure;altitude;pressure_sealevel;temperature;humidity
26487;BME280;14425;56.136;40.360;2023-05-19T00:02:15;99987.25;;;14.71;100.00
26487;BME280;14425;56.136;40.360;2023-05-19T00:04:43;99987.69;;;14.90;100.00
26487;BME280;14425;56.136;40.360;2023-05-19T00:07:09;99980.28;;;14.70;100.00
26487;BME280;14425;56.136;40.360;2023-05-19T00:09:36;99989.56;;;14.60;100.00
26487;BME280;14425;56.136;40.360;2023-05-19T00:12:02;99986.78;;;14.53;100.00
26487;BME280;14425;56.136;40.360;2023-05-19T00:14:28;99993.69;;;14.54;100.00
26487;BME280;14425;56.136;40.360;2023-05-19T00:16:54;99989.03;;;14.40;100.00
26487;BME280;14425;56.136;40.360;2023-05-19T00:19:20;99989.81;;;14.36;100.00
26487;BME280;14425;56.136;40.360;2023-05-19T00:21:46;99993.94;;;14.28;100.00
26487;BME280;14425;56.136;40.360;2023-05-19T00:24:11;99994.09;;;14.36;100.00
26487;BME280;14425;56.136;40.360;2023-05-19T00:26:37;99994.75;;;14.27;100.00
26487;BME280;14425;56.136;40.360;2023-05-19T00:29:03;99994.75;;;14.27;100.00
26487;BME280;14425;56.136;40.360;2023-05-19T00:31:29;100002.34;;;14.19;100.00
26487;BME280;14425;56.136;40.360;2023-05-19T00:33:58;100001.47;;;14.19;100.00
26487;BME280;14425;56.136;40.360;2023-05-19T00:36:24;100003.91;;;14.13;100.00
26487;BME280;14425;56.136;40.360;2023-05-19T00:38:50;100006.69;;;14.20;100.00
26487;BME280;14425;56.136;40.360;2023-05-19T00:41:16;100005.53;;;14.09;100.00
26487;BME280;14425;56.136;40.360;2023-05-19T00:43:42;100007.47;;;14.16;100.00
26487;BME280;14425;56.136;40.360;2023-05-19T00:46:07;100007.25;;;14.09;100.00
26487;BME280;14425;56.136;40.360;2023-05-19T00:48:35;100008.88;;;14.05;100.00
26487;BME280;14425;56.136;40.360;2023-05-19T00:51:01;100012.31;;;14.04;100.00
26487;BME280;14425;56.136;40.360;2023-05-19T00:53:30;100011.44;;;14.03;100.00
26487;BME280;14425;56.136;40.360;2023-05-19T00:55:57;99999.56;;;14.12;100.00
26487;BME280;14425;56.136;40.360;2023-05-19T00:58:23;100014.94;;;14.05;100.00
26487;BME280;14425;56.136;40.360;2023-05-19T01:00:54;100007.34;;;14.12;100.00
26487;BME280;14425;56.136;40.360;2023-05-19T01:03:27;100010.53;;;14.01;100.00
26487;BME280;14425;56.136;40.360;2023-05-19T01:05:55;100007.75;;;13.95;100.00
26487;BME280;14425;56.136;40.360;2023-05-19T01:08:20;100009.53;;;13.96;100.00
26487;BME280;14425;56.136;40.360;2023-05-19T01:10:46;100006.25;;;14.03;100.00
26487;BME280;14425;56.136;40.360;2023-05-19T01:13:11;100006.66;;;14.19;100.00
26487;BME280;14425;56.136;40.360;2023-05-19T01:24:04;100010.69;;;14.09;100.00
26487;BME280;14425;56.136;40.360;2023-05-19T01:31:49;100020.16;;;14.07;100.00
26487;BME280;14425;56.136;40.360;2023-05-19T01:34:16;100006.50;;;14.13;100.00
26487;BME280;14425;56.136;40.360;2023-05-19T01:36:43;100011.59;;;14.10;100.00
26487;BME280;14425;56.136;40.360;2023-05-19T01:39:13;100018.38;;;14.04;100.00
26487;BME280;14425;56.136;40.360;2023-05-19T01:41:40;100026.16;;;14.04;100.00
26487;BME280;14425;56.136;40.360;2023-05-19T01:44:07;100022.66;;;14.04;100.00
26487;BME280;14425;56.136;40.360;2023-05-19T01:46:33;100026.19;;;14.06;100.00
26487;BME280;14425;56.136;40.360;2023-05-19T01:48:58;100027.81;;;14.02;100.00
26487;BME280;14425;56.136;40.360;2023-05-19T01:51:24;100022.63;;;14.02;100.00
26487;BME280;14425;56.136;40.360;2023-05-19T01:53:50;100026.91;;;14.00;100.00
26487;BME280;14425;56.136;40.360;2023-05-19T01:56:19;100021.47;;;13.91;100.00
26487;BME280;14425;56.136;40.360;2023-05-19T01:58:52;100019.94;;;13.99;100.00
26487;BME280;14425;56.136;40.360;2023-05-19T02:01:29;100018.38;;;14.04;100.00
26487;BME280;14425;56.136;40.360;2023-05-19T02:04:14;100027.25;;;14.13;100.00
26487;BME280;14425;56.136;40.360;2023-05-19T02:12:10;100020.06;;;14.36;100.00
26487;BME280;14425;56.136;40.360;2023-05-19T02:14:48;100025.06;;;14.28;100.00
26487;BME280;14425;56.136;40.360;2023-05-19T02:17:15;100020.63;;;14.24;100.00
26487;BME280;14425;56.136;40.360;2023-05-19T02:19:42;100016.72;;;14.40;100.00
26487;BME280;14425;56.136;40.360;2023-05-19T02:22:08;100025.09;;;14.30;100.00
26487;BME280;14425;56.136;40.360;2023-05-19T02:24:33;100020.69;;;14.27;100.00
26487;BME280;14425;56.136;40.360;2023-05-19T02:27:00;100032.03;;;14.31;100.00
26487;BME280;14425;56.136;40.360;2023-05-19T02:29:26;100027.88;;;14.37;100.00
26487;BME280;14425;56.136;40.360;2023-05-19T02:31:52;100031.03;;;14.26;100.00
26487;BME280;14425;56.136;40.360;2023-05-19T02:34:18;100030.59;;;14.09;100.00
26487;BME280;14425;56.136;40.360;2023-05-19T02:36:43;100033.19;;;14.09;100.00
26487;BME280;14425;56.136;40.360;2023-05-19T02:39:10;100040.97;;;14.09;100.00
26487;BME280;14425;56.136;40.360;2023-05-19T02:41:36;100035.94;;;14.15;100.00
26487;BME280;14425;56.136;40.360;2023-05-19T02:44:02;100034.09;;;14.11;100.00
26487;BME280;14425;56.136;40.360;2023-05-19T02:46:27;100037.22;;;14.31;100.00
26487;BME280;14425;56.136;40.360;2023-05-19T02:48:53;100043.72;;;14.15;100.00
26487;BME280;14425;56.136;40.360;2023-05-19T02:51:18;100046.56;;;14.24;100.00
26487;BME280;14425;56.136;40.360;2023-05-19T02:53:44;100045.13;;;14.03;100.00
26487;BME280;14425;56.136;40.360;2023-05-19T02:56:09;100061.53;;;14.02;100.00
26487;BME280;14425;56.136;40.360;2023-05-19T02:58:35;100056.91;;;13.92;100.00
26487;BME280;14425;56.136;40.360;2023-05-19T03:01:00;100054.81;;;13.79;100.00
26487;BME280;14425;56.136;40.360;2023-05-19T03:03:27;100065.00;;;13.73;100.00
26487;BME280;14425;56.136;40.360;2023-05-19T03:05:53;100069.25;;;13.71;100.00
26487;BME280;14425;56.136;40.360;2023-05-19T03:08:19;100071.38;;;13.84;100.00
26487;BME280;14425;56.136;40.360;2023-05-19T03:10:45;100065.47;;;13.88;100.00
26487;BME280;14425;56.136;40.360;2023-05-19T03:13:11;100077.19;;;14.05;100.00
26487;BME280;14425;56.136;40.360;2023-05-19T03:15:36;100077.19;;;14.05;100.00
26487;BME280;14425;56.136;40.360;2023-05-19T03:18:02;100075.88;;;13.61;100.00
26487;BME280;14425;56.136;40.360;2023-05-19T03:20:28;100063.56;;;14.13;100.00
26487;BME280;14425;56.136;40.360;2023-05-19T03:22:55;100078.69;;;14.29;100.00
26487;BME280;14425;56.136;40.360;2023-05-19T03:25:21;100076.03;;;13.96;100.00
26487;BME280;14425;56.136;40.360;2023-05-19T03:27:46;100087.78;;;13.84;100.00
26487;BME280;14425;56.136;40.360;2023-05-19T03:30:12;100085.56;;;13.66;100.00
26487;BME280;14425;56.136;40.360;2023-05-19T03:32:38;100093.84;;;13.55;100.00
26487;BME280;14425;56.136;40.360;2023-05-19T03:35:04;100085.56;;;13.66;100.00
26487;BME280;14425;56.136;40.360;2023-05-19T03:37:30;100097.88;;;13.74;100.00
26487;BME280;14425;56.136;40.360;2023-05-19T03:39:57;100104.38;;;13.61;100.00
26487;BME280;14425;56.136;40.360;2023-05-19T03:42:23;100105.50;;;13.40;100.00
26487;BME280;14425;56.136;40.360;2023-05-19T03:44:48;100111.03;;;13.25;100.00
26487;BME280;14425;56.136;40.360;2023-05-19T03:47:14;100111.22;;;13.04;100.00
26487;BME280;14425;56.136;40.360;2023-05-19T03:49:40;100111.69;;;13.45;100.00
26487;BME280;14425;56.136;40.360;2023-05-19T03:52:05;100125.56;;;13.20;100.00
26487;BME280;14425;56.136;40.360;2023-05-19T03:54:31;100125.66;;;12.98;100.00
26487;BME280;14425;56.136;40.360;2023-05-19T03:56:56;100125.34;;;12.63;100.00
26487;BME280;14425;56.136;40.360;2023-05-19T03:59:22;100135.41;;;12.55;100.00
26487;BME280;14425;56.136;40.360;2023-05-19T04:01:49;100127.34;;;13.23;100.00
26487;BME280;14425;56.136;40.360;2023-05-19T04:04:14;100126.19;;;12.87;100.00
26487;BME280;14425;56.136;40.360;2023-05-19T04:06:40;100126.91;;;12.83;100.00
26487;BME280;14425;56.136;40.360;2023-05-19T04:09:12;100136.28;;;13.05;100.00
26487;BME280;14425;56.136;40.360;2023-05-19T04:11:39;100133.59;;;13.29;100.00
26487;BME280;14425;56.136;40.360;2023-05-19T04:14:06;100125.78;;;13.28;100.00
26487;BME280;14425;56.136;40.360;2023-05-19T04:16:32;100132.41;;;12.92;100.00
26487;BME280;14425;56.136;40.360;2023-05-19T04:18:58;100136.75;;;12.93;100.00
26487;BME280;14425;56.136;40.360;2023-05-19T04:21:23;100132.34;;;12.91;100.00
26487;BME280;14425;56.136;40.360;2023-05-19T04:23:49;100136.75;;;12.68;100.00
26487;BME280;14425;56.136;40.360;2023-05-19T04:26:14;100142.75;;;12.92;100.00
26487;BME280;14425;56.136;40.360;2023-05-19T04:28:40;100136.88;;;12.97;100.00
26487;BME280;14425;56.136;40.360;2023-05-19T04:31:09;100131.88;;;13.03;100.00
26487;BME280;14425;56.136;40.360;2023-05-19T04:33:37;100134.19;;;12.93;100.00
26487;BME280;14425;56.136;40.360;2023-05-19T04:36:04;100133.53;;;13.01;100.00
26487;BME280;14425;56.136;40.360;2023-05-19T04:38:36;100124.91;;;13.27;100.00
26487;BME280;14425;56.136;40.360;2023-05-19T04:41:02;100131.75;;;13.25;98.54
26487;BME280;14425;56.136;40.360;2023-05-19T04:43:28;100128.81;;;13.15;100.00
26487;BME280;14425;56.136;40.360;2023-05-19T04:45:54;100138.63;;;13.51;97.14
26487;BME280;14425;56.136;40.360;2023-05-19T04:48:20;100132.44;;;13.45;96.89
26487;BME280;14425;56.136;40.360;2023-05-19T04:50:46;100141.19;;;12.98;98.92
26487;BME280;14425;56.136;40.360;2023-05-19T04:53:14;100142.94;;;12.73;100.00
26487;BME280;14425;56.136;40.360;2023-05-19T04:55:39;100157.31;;;12.65;100.00
26487;BME280;14425;56.136;40.360;2023-05-19T04:58:05;100142.44;;;13.35;98.35
26487;BME280;14425;56.136;40.360;2023-05-19T05:00:31;100138.72;;;13.26;96.96
26487;BME280;14425;56.136;40.360;2023-05-19T05:02:57;100153.72;;;13.11;97.38
26487;BME280;14425;56.136;40.360;2023-05-19T05:05:22;100154.09;;;12.70;100.00
26487;BME280;14425;56.136;40.360;2023-05-19T05:07:49;100157.13;;;12.59;100.00
26487;BME280;14425;56.136;40.360;2023-05-19T05:10:14;100161.63;;;12.64;100.00
26487;BME280;14425;56.136;40.360;2023-05-19T05:12:40;100156.03;;;13.02;99.94
26487;BME280;14425;56.136;40.360;2023-05-19T05:15:06;100157.38;;;12.90;97.72
26487;BME280;14425;56.136;40.360;2023-05-19T05:17:33;100155.94;;;12.74;99.38
26487;BME280;14425;56.136;40.360;2023-05-19T05:20:00;100155.06;;;12.74;100.00
26487;BME280;14425;56.136;40.360;2023-05-19T05:22:26;100164.91;;;12.84;100.00
26487;BME280;14425;56.136;40.360;2023-05-19T05:24:52;100156.63;;;12.94;98.38
26487;BME280;14425;56.136;40.360;2023-05-19T05:27:18;100162.63;;;12.68;100.00
26487;BME280;14425;56.136;40.360;2023-05-19T05:29:43;100169.34;;;12.63;100.00
26487;BME280;14425;56.136;40.360;2023-05-19T05:32:09;100167.78;;;12.68;100.00
26487;BME280;14425;56.136;40.360;2023-05-19T05:34:34;100171.31;;;12.46;100.00
26487;BME280;14425;56.136;40.360;2023-05-19T05:37:02;100175.84;;;12.27;100.00
26487;BME280;14425;56.136;40.360;2023-05-19T05:39:27;100174.50;;;12.63;100.00
26487;BME280;14425;56.136;40.360;2023-05-19T05:41:53;100181.19;;;12.32;100.00
26487;BME280;14425;56.136;40.360;2023-05-19T05:44:18;100177.44;;;12.24;100.00
26487;BME280;14425;56.136;40.360;2023-05-19T05:46:44;100174.78;;;12.70;100.00
26487;BME280;14425;56.136;40.360;2023-05-19T05:49:10;100184.88;;;12.63;100.00
26487;BME280;14425;56.136;40.360;2023-05-19T05:51:38;100186.50;;;12.36;100.00
26487;BME280;14425;56.136;40.360;2023-05-19T05:54:05;100188.88;;;12.08;100.00
26487;BME280;14425;56.136;40.360;2023-05-19T05:56:30;100195.97;;;12.13;100.00
26487;BME280;14425;56.136;40.360;2023-05-19T05:58:58;100191.88;;;12.18;100.00
26487;BME280;14425;56.136;40.360;2023-05-19T06:01:24;100187.69;;;12.69;100.00
26487;BME280;14425;56.136;40.360;2023-05-19T06:03:49;100195.31;;;12.42;100.00
26487;BME280;14425;56.136;40.360;2023-05-19T06:06:15;100200.22;;;12.11;100.00
26487;BME280;14425;56.136;40.360;2023-05-19T06:08:40;100200.28;;;12.13;100.00
26487;BME280;14425;56.136;40.360;2023-05-19T06:11:06;100203.09;;;12.19;100.00
26487;BME280;14425;56.136;40.360;2023-05-19T06:13:34;100203.06;;;12.17;100.00
26487;BME280;14425;56.136;40.360;2023-05-19T06:16:00;100210.44;;;12.08;100.00
26487;BME280;14425;56.136;40.360;2023-05-19T06:18:27;100209.44;;;12.27;100.00
26487;BME280;14425;56.136;40.360;2023-05-19T06:20:52;100210.97;;;12.69;100.00
26487;BME280;14425;56.136;40.360;2023-05-19T06:23:18;100207.75;;;12.28;100.00
26487;BME280;14425;56.136;40.360;2023-05-19T06:25:43;100211.94;;;12.48;100.00
26487;BME280;14425;56.136;40.360;2023-05-19T06:28:09;100215.59;;;12.53;100.00
26487;BME280;14425;56.136;40.360;2023-05-19T06:30:35;100214.00;;;12.57;100.00
26487;BME280;14425;56.136;40.360;2023-05-19T06:33:01;100219.94;;;12.54;100.00
26487;BME280;14425;56.136;40.360;2023-05-19T06:35:28;100225.41;;;12.39;100.00
26487;BME280;14425;56.136;40.360;2023-05-19T06:37:53;100231.75;;;12.24;100.00
26487;BME280;14425;56.136;40.360;2023-05-19T06:40:21;100218.50;;;12.16;100.00
26487;BME280;14425;56.136;40.360;2023-05-19T06:42:46;100221.16;;;12.17;100.00
26487;BME280;14425;56.136;40.360;2023-05-19T06:45:12;100225.09;;;12.30;100.00
26487;BME280;14425;56.136;40.360;2023-05-19T06:47:37;100224.03;;;12.25;100.00
26487;BME280;14425;56.136;40.360;2023-05-19T06:50:05;100224.06;;;12.49;100.00
26487;BME280;14425;56.136;40.360;2023-05-19T06:52:32;100231.31;;;12.35;100.00
26487;BME280;14425;56.136;40.360;2023-05-19T06:54:57;100229.97;;;12.23;100.00
26487;BME280;14425;56.136;40.360;2023-05-19T06:57:23;100235.53;;;12.33;100.00
26487;BME280;14425;56.136;40.360;2023-05-19T06:59:48;100228.97;;;12.19;100.00
26487;BME280;14425;56.136;40.360;2023-05-19T07:02:14;100240.66;;;12.32;100.00
26487;BME280;14425;56.136;40.360;2023-05-19T07:04:39;100238.94;;;12.32;100.00
26487;BME280;14425;56.136;40.360;2023-05-19T07:07:05;100234.03;;;12.40;100.00
26487;BME280;14425;56.136;40.360;2023-05-19T07:09:31;100234.28;;;12.46;100.00
26487;BME280;14425;56.136;40.360;2023-05-19T07:11:56;100240.25;;;12.44;100.00
26487;BME280;14425;56.136;40.360;2023-05-19T07:14:22;100233.16;;;12.62;100.00
26487;BME280;14425;56.136;40.360;2023-05-19T07:16:47;100241.47;;;12.78;100.00
26487;BME280;14425;56.136;40.360;2023-05-19T07:19:13;100246.53;;;12.50;100.00
26487;BME280;14425;56.136;40.360;2023-05-19T07:21:39;100248.81;;;12.43;100.00
26487;BME280;14425;56.136;40.360;2023-05-19T07:24:04;100242.03;;;12.46;100.00
26487;BME280;14425;56.136;40.360;2023-05-19T07:26:30;100246.19;;;13.13;100.00
26487;BME280;14425;56.136;40.360;2023-05-19T07:28:56;100251.31;;;13.12;100.00
26487;BME280;14425;56.136;40.360;2023-05-19T07:31:22;100254.31;;;13.24;100.00
26487;BME280;14425;56.136;40.360;2023-05-19T07:33:47;100257.75;;;13.23;100.00
26487;BME280;14425;56.136;40.360;2023-05-19T07:36:13;100248.31;;;13.51;100.00
26487;BME280;14425;56.136;40.360;2023-05-19T07:38:38;100253.00;;;13.36;100.00
26487;BME280;14425;56.136;40.360;2023-05-19T07:41:04;100247.41;;;13.49;96.09
26487;BME280;14425;56.136;40.360;2023-05-19T07:43:29;100239.22;;;13.37;97.22
26487;BME280;14425;56.136;40.360;2023-05-19T07:45:55;100244.75;;;12.98;99.68
26487;BME280;14425;56.136;40.360;2023-05-19T07:48:21;100254.91;;;12.67;100.00
26487;BME280;14425;56.136;40.360;2023-05-19T07:50:49;100258.63;;;12.51;100.00
26487;BME280;14425;56.136;40.360;2023-05-19T07:53:15;100263.72;;;12.97;97.99
26487;BME280;14425;56.136;40.360;2023-05-19T07:55:40;100262.50;;;12.87;98.33
26487;BME280;14425;56.136;40.360;2023-05-19T07:58:06;100259.53;;;12.76;99.00
26487;BME280;14425;56.136;40.360;2023-05-19T08:00:32;100263.81;;;13.00;95.71
26487;BME280;14425;56.136;40.360;2023-05-19T08:02:59;100259.75;;;12.82;95.62
26487;BME280;14425;56.136;40.360;2023-05-19T08:05:24;100274.78;;;12.68;100.00
26487;BME280;14425;56.136;40.360;2023-05-19T08:07:50;100265.84;;;12.84;96.11
26487;BME280;14425;56.136;40.360;2023-05-19T08:10:16;100272.94;;;12.88;94.92
26487;BME280;14425;56.136;40.360;2023-05-19T08:12:41;100269.44;;;12.64;96.72
26487;BME280;14425;56.136;40.360;2023-05-19T08:15:08;100271.97;;;12.62;96.99
26487;BME280;14425;56.136;40.360;2023-05-19T08:17:36;100279.56;;;12.57;98.04
26487;BME280;14425;56.136;40.360;2023-05-19T08:20:03;100286.38;;;12.55;97.41
26487;BME280;14425;56.136;40.360;2023-05-19T08:22:30;100284.06;;;12.63;95.53
26487;BME280;14425;56.136;40.360;2023-05-19T08:24:56;100283.06;;;12.60;98.22
26487;BME280;14425;56.136;40.360;2023-05-19T08:27:22;100286.44;;;12.57;97.48
26487;BME280;14425;56.136;40.360;2023-05-19T08:29:49;100298.09;;;12.46;100.00
26487;BME280;14425;56.136;40.360;2023-05-19T08:32:15;100294.16;;;12.55;99.17
26487;BME280;14425;56.136;40.360;2023-05-19T08:34:41;100298.41;;;12.55;99.31
26487;BME280;14425;56.136;40.360;2023-05-19T08:37:07;100287.78;;;12.47;100.00
26487;BME280;14425;56.136;40.360;2023-05-19T08:39:32;100298.78;;;12.42;100.00
26487;BME280;14425;56.136;40.360;2023-05-19T08:41:59;100295.41;;;12.22;100.00
26487;BME280;14425;56.136;40.360;2023-05-19T08:44:25;100302.19;;;12.41;100.00
26487;BME280;14425;56.136;40.360;2023-05-19T08:46:53;100307.38;;;12.41;100.00
26487;BME280;14425;56.136;40.360;2023-05-19T08:49:24;100295.97;;;12.35;100.00
26487;BME280;14425;56.136;40.360;2023-05-19T08:54:45;100305.00;;;12.24;100.00
26487;BME280;14425;56.136;40.360;2023-05-19T08:57:16;100297.91;;;12.41;100.00
26487;BME280;14425;56.136;40.360;2023-05-19T08:59:42;100304.94;;;12.68;100.00
26487;BME280;14425;56.136;40.360;2023-05-19T09:02:10;100304.34;;;12.99;96.25
26487;BME280;14425;56.136;40.360;2023-05-19T09:04:38;100302.84;;;12.57;98.91
26487;BME280;14425;56.136;40.360;2023-05-19T09:07:04;100307.13;;;12.57;100.00
26487;BME280;14425;56.136;40.360;2023-05-19T09:09:30;100294.63;;;12.45;99.01
26487;BME280;14425;56.136;40.360;2023-05-19T09:11:56;100299.91;;;12.26;100.00
26487;BME280;14425;56.136;40.360;2023-05-19T09:14:22;100299.56;;;12.39;100.00
26487;BME280;14425;56.136;40.360;2023-05-19T09:16:48;100303.94;;;12.42;100.00
26487;BME280;14425;56.136;40.360;2023-05-19T09:19:17;100306.25;;;12.34;100.00
26487;BME280;14425;56.136;40.360;2023-05-19T09:21:42;100310.25;;;12.26;100.00
26487;BME280;14425;56.136;40.360;2023-05-19T09:24:09;100311.19;;;12.50;100.00
26487;BME280;14425;56.136;40.360;2023-05-19T09:26:39;100301.97;;;12.34;100.00
26487;BME280;14425;56.136;40.360;2023-05-19T09:29:15;100307.41;;;12.19;100.00
26487;BME280;14425;56.136;40.360;2023-05-19T09:34:14;100307.13;;;12.34;100.00
26487;BME280;14425;56.136;40.360;2023-05-19T09:36:40;100300.03;;;12.29;100.00
26487;BME280;14425;56.136;40.360;2023-05-19T09:39:13;100309.06;;;12.17;100.00
26487;BME280;14425;56.136;40.360;2023-05-19T09:41:39;100306.00;;;12.28;100.00
26487;BME280;14425;56.136;40.360;2023-05-19T09:44:04;100318.13;;;12.51;100.00
26487;BME280;14425;56.136;40.360;2023-05-19T09:46:32;100319.84;;;12.51;100.00
26487;BME280;14425;56.136;40.360;2023-05-19T09:49:07;100310.72;;;12.15;100.00
26487;BME280;14425;56.136;40.360;2023-05-19T09:51:35;100307.75;;;12.06;100.00
26487;BME280;14425;56.136;40.360;2023-05-19T09:54:02;100315.88;;;12.38;100.00
26487;BME280;14425;56.136;40.360;2023-05-19T09:56:34;100323.06;;;12.23;100.00
26487;BME280;14425;56.136;40.360;2023-05-19T09:59:02;100317.41;;;12.10;100.00
26487;BME280;14425;56.136;40.360;2023-05-19T10:01:29;100315.88;;;12.38;100.00
26487;BME280;14425;56.136;40.360;2023-05-19T10:03:55;100310.78;;;12.39;100.00
26487;BME280;14425;56.136;40.360;2023-05-19T10:06:22;100315.19;;;12.42;100.00
26487;BME280;14425;56.136;40.360;2023-05-19T10:08:48;100317.81;;;12.21;100.00
26487;BME280;14425;56.136;40.360;2023-05-19T10:11:14;100318.81;;;12.02;100.00
26487;BME280;14425;56.136;40.360;2023-05-19T10:13:41;100308.94;;;11.93;100.00
26487;BME280;14425;56.136;40.360;2023-05-19T10:16:09;100305.31;;;12.32;100.00
26487;BME280;14425;56.136;40.360;2023-05-19T10:18:36;100311.47;;;12.13;100.00
26487;BME280;14425;56.136;40.360;2023-05-19T10:21:02;100305.53;;;12.15;100.00
26487;BME280;14425;56.136;40.360;2023-05-19T10:23:28;100314.53;;;12.48;100.00
26487;BME280;14425;56.136;40.360;2023-05-19T10:25:57;100310.06;;;12.66;100.00
26487;BME280;14425;56.136;40.360;2023-05-19T10:28:30;100310.97;;;12.67;100.00
26487;BME280;14425;56.136;40.360;2023-05-19T10:31:00;100309.31;;;12.46;100.00
26487;BME280;14425;56.136;40.360;2023-05-19T10:33:46;100303.88;;;12.63;100.00
26487;BME280;14425;56.136;40.360;2023-05-19T10:36:27;100305.88;;;12.70;100.00
26487;BME280;14425;56.136;40.360;2023-05-19T10:39:09;100303.03;;;12.86;100.00
26487;BME280;14425;56.136;40.360;2023-05-19T10:46:53;100305.69;;;13.36;100.00
26487;BME280;14425;56.136;40.360;2023-05-19T10:49:19;100306.47;;;13.34;99.48
26487;BME280;14425;56.136;40.360;2023-05-19T10:51:46;100301.19;;;13.56;96.72
26487;BME280;14425;56.136;40.360;2023-05-19T10:54:11;100298.91;;;13.65;92.07
26487;BME280;14425;56.136;40.360;2023-05-19T10:56:42;100291.88;;;13.89;92.28
26487;BME280;14425;56.136;40.360;2023-05-19T10:59:31;100288.97;;;14.05;88.49
26487;BME280;14425;56.136;40.360;2023-05-19T11:02:02;100294.19;;;14.07;85.57
26487;BME280;14425;56.136;40.360;2023-05-19T11:04:47;100287.91;;;14.56;78.59
26487;BME280;14425;56.136;40.360;2023-05-19T11:07:19;100292.47;;;14.93;75.53
26487;BME280;14425;56.136;40.360;2023-05-19T11:09:52;100286.13;;;14.84;72.37
26487;BME280;14425;56.136;40.360;2023-05-19T11:12:22;100287.63;;;15.06;71.70
26487;BME280;14425;56.136;40.360;2023-05-19T11:14:51;100290.97;;;15.02;70.50
26487;BME280;14425;56.136;40.360;2023-05-19T11:17:18;100289.38;;;15.07;67.25
26487;BME280;14425;56.136;40.360;2023-05-19T11:19:53;100284.31;;;15.11;67.91
26487;BME280;14425;56.136;40.360;2023-05-19T11:22:24;100283.44;;;15.44;69.04
26487;BME280;14425;56.136;40.360;2023-05-19T11:24:50;100281.81;;;17.02;61.32
26487;BME280;14425;56.136;40.360;2023-05-19T11:27:28;100278.34;;;18.00;56.95
26487;BME280;14425;56.136;40.360;2023-05-19T11:29:58;100280.84;;;17.94;56.83
26487;BME280;14425;56.136;40.360;2023-05-19T11:32:26;100282.50;;;17.37;57.07
26487;BME280;14425;56.136;40.360;2023-05-19T11:34:51;100295.53;;;16.50;59.88
26487;BME280;14425;56.136;40.360;2023-05-19T11:37:19;100290.03;;;16.00;62.71
26487;BME280;14425;56.136;40.360;2023-05-19T11:39:45;100288.28;;;15.99;63.37
26487;BME280;14425;56.136;40.360;2023-05-19T11:42:11;100275.94;;;16.69;62.73
26487;BME280;14425;56.136;40.360;2023-05-19T11:44:37;100279.38;;;17.60;58.06
26487;BME280;14425;56.136;40.360;2023-05-19T11:47:05;100286.63;;;18.30;55.60
26487;BME280;14425;56.136;40.360;2023-05-19T11:49:31;100273.50;;;17.70;56.56
26487;BME280;14425;56.136;40.360;2023-05-19T11:51:59;100276.22;;;17.79;54.10
26487;BME280;14425;56.136;40.360;2023-05-19T11:54:32;100275.56;;;18.51;53.17
26487;BME280;14425;56.136;40.360;2023-05-19T11:57:00;100267.53;;;19.06;51.09
26487;BME280;14425;56.136;40.360;2023-05-19T11:59:33;100277.41;;;18.58;52.21
26487;BME280;14425;56.136;40.360;2023-05-19T12:02:24;100265.69;;;18.95;49.66
26487;BME280;14425;56.136;40.360;2023-05-19T12:04:52;100272.66;;;17.72;52.74
26487;BME280;14425;56.136;40.360;2023-05-19T12:07:19;100274.56;;;17.32;53.76
26487;BME280;14425;56.136;40.360;2023-05-19T12:09:48;100278.72;;;17.21;53.14
26487;BME280;14425;56.136;40.360;2023-05-19T12:12:15;100274.56;;;17.32;55.11
26487;BME280;14425;56.136;40.360;2023-05-19T12:14:42;100277.19;;;17.86;51.64
26487;BME280;14425;56.136;40.360;2023-05-19T12:17:15;100274.53;;;17.31;53.21
26487;BME280;14425;56.136;40.360;2023-05-19T12:19:48;100277.78;;;17.17;52.44
26487;BME280;14425;56.136;40.360;2023-05-19T12:22:15;100279.03;;;17.40;53.03
26487;BME280;14425;56.136;40.360;2023-05-19T12:24:42;100291.31;;;16.98;54.37
26487;BME280;14425;56.136;40.360;2023-05-19T12:29:37;100280.13;;;17.52;54.00
26487;BME280;14425;56.136;40.360;2023-05-19T12:32:02;100279.09;;;17.43;52.91
26487;BME280;14425;56.136;40.360;2023-05-19T12:34:29;100278.50;;;17.58;53.17
26487;BME280;14425;56.136;40.360;2023-05-19T12:36:54;100285.13;;;17.39;52.79
26487;BME280;14425;56.136;40.360;2023-05-19T12:39:20;100283.09;;;17.72;52.79
26487;BME280;14425;56.136;40.360;2023-05-19T12:41:46;100289.66;;;17.03;53.95
26487;BME280;14425;56.136;40.360;2023-05-19T12:44:15;100289.84;;;17.12;54.21
26487;BME280;14425;56.136;40.360;2023-05-19T12:46:41;100295.56;;;16.94;53.96
26487;BME280;14425;56.136;40.360;2023-05-19T12:49:08;100287.09;;;17.05;53.69
26487;BME280;14425;56.136;40.360;2023-05-19T12:51:35;100278.78;;;16.81;54.89
26487;BME280;14425;56.136;40.360;2023-05-19T12:54:01;100282.84;;;17.08;54.55
26487;BME280;14425;56.136;40.360;2023-05-19T12:56:28;100272.50;;;17.62;51.67
26487;BME280;14425;56.136;40.360;2023-05-19T12:58:53;100267.72;;;17.38;51.27
26487;BME280;14425;56.136;40.360;2023-05-19T13:01:19;100263.13;;;17.73;50.44
26487;BME280;14425;56.136;40.360;2023-05-19T13:03:44;100268.22;;;17.67;49.46
26487;BME280;14425;56.136;40.360;2023-05-19T13:06:10;100258.06;;;17.85;48.15